Airfield :
LOGIN :

Register | Disclaimer

   EN    FR    IT 

 










Legend :    VFR   Marginal VFR   IFR   Intensive IFR   Very Intensive IFR
Visi :
Ceiling :
>= 8 km
>= 3000ft
5 to 8 km
1000 to 3000 ft
1500m to 5 km
500 to 1000 ft
800 to 1500m
200 to 500 ft
< 800m
< 200 ft
Symbols :   Thunderstorms  Fog  Heavy snow  Heavy precipitations  Wind > 20 kt
SIGMETs :     Misc.  Thunderstorms  Icing  Turbulence  Mountain Waves  Volcanic Ashes







- Airport Elevation : 1548 ft


LKNA - Náměšť Air Base

CURRENT METAR :
  • 141300Z 26019KT 9999 FEW045 05/M05 Q0999 NOSIG RMK BLU BLU

EXPIRED METARs :
  • 141206Z 25023G34KT 9999 FEW034 05/M03 Q0999 RMK BLU
  • 141100Z 24020KT CAVOK 04/M02 Q0999 NOSIG RMK BLU BLU

TAF TAF LKNA
Valid from the 14 at 12:00 until the 15 at 12:00 UTC


141100Z 1412/1512 24014KT 9999 SCT030
TEMPO 1412/1418 25020G32KT CAVOK
BECMG 1420/1422 16008KT 7000 BKN020
BECMG 1502/1504 4000 BR BKN015
PROB30
TEMPO 1503/1509 0800 FZFG SN VV001
No reported NOTAMs for that airfield.



MET'MAP, your aeronautical weather chart ! - Copyright ORBIFLY December 2007 - Disclaimer

ORBIFLY MET'MAP TEAM :

Programming & Development : Alexandra Zaïnal
Concept & Development : Baudouin d'Aumeries
Co-Development & Prog : Marc-Olivier Méhu
Technical & hardware support : Manuel Goepfert

Contact : metmap@orbifly.com




SOURCES & CREDITS :

   NOAA